createdAt,value
2023-01-07T00:02:10.143Z,14.13
2023-01-07T00:04:38.119Z,12.87
2023-01-07T00:07:06.203Z,14.63
2023-01-07T00:09:35.477Z,14.90
2023-01-07T00:12:03.495Z,15.47
2023-01-07T00:14:31.489Z,16.67
2023-01-07T00:16:59.836Z,16.47
2023-01-07T00:19:29.487Z,14.67
2023-01-07T00:21:58.312Z,17.67
2023-01-07T00:24:26.715Z,22.47
2023-01-07T00:26:54.971Z,20.20
2023-01-07T00:29:23.266Z,21.53
2023-01-07T00:31:51.830Z,18.03
2023-01-07T00:34:23.573Z,21.67
2023-01-07T00:37:13.336Z,19.57
2023-01-07T00:39:42.129Z,23.23
2023-01-07T00:42:27.930Z,21.33
2023-01-07T00:44:56.311Z,24.23
2023-01-07T00:47:24.631Z,23.33
2023-01-07T00:49:53.046Z,24.27
2023-01-07T00:52:22.612Z,26.60
2023-01-07T00:54:51.687Z,25.13
2023-01-07T00:57:20.029Z,25.37
2023-01-07T00:59:48.417Z,24.70
2023-01-07T01:02:16.729Z,24.13
2023-01-07T01:04:45.331Z,24.93
2023-01-07T01:07:13.614Z,21.63
2023-01-07T01:09:43.327Z,24.20
2023-01-07T01:12:11.688Z,24.67
2023-01-07T01:14:40.052Z,26.40
2023-01-07T01:17:08.769Z,24.13
2023-01-07T01:19:37.131Z,27.17
2023-01-07T01:22:05.333Z,26.90
2023-01-07T01:24:33.789Z,27.37
2023-01-07T01:27:03.562Z,25.97
2023-01-07T01:29:31.876Z,29.43
2023-01-07T01:32:01.056Z,25.27
2023-01-07T01:34:31.979Z,26.87
2023-01-07T01:37:01.483Z,27.47
2023-01-07T01:39:31.371Z,26.20
2023-01-07T01:41:59.796Z,29.83
2023-01-07T01:44:39.803Z,27.10
2023-01-07T01:47:17.590Z,31.50
2023-01-07T01:49:51.188Z,30.83
2023-01-07T01:52:27.485Z,32.13
2023-01-07T01:55:01.377Z,29.73
2023-01-07T01:57:32.708Z,33.47
2023-01-07T02:00:03.961Z,33.17
2023-01-07T02:02:45.697Z,38.47
2023-01-07T02:05:14.912Z,39.17
2023-01-07T02:07:43.212Z,34.00
2023-01-07T02:10:15.931Z,34.67
2023-01-07T02:12:56.648Z,33.37
2023-01-07T02:15:33.980Z,37.77
2023-01-07T02:18:15.070Z,40.17
2023-01-07T02:20:55.322Z,37.33
2023-01-07T02:24:07.277Z,37.27
2023-01-07T02:27:08.836Z,40.57
2023-01-07T02:30:18.771Z,41.77
2023-01-07T02:33:25.727Z,43.20
2023-01-07T02:36:09.256Z,42.73
2023-01-07T02:38:50.790Z,43.57
2023-01-07T02:41:28.960Z,48.63
2023-01-07T02:44:04.498Z,44.40
2023-01-07T02:46:39.198Z,46.67
2023-01-07T02:49:09.638Z,47.23
2023-01-07T02:51:41.452Z,49.23
2023-01-07T02:54:14.676Z,46.37
2023-01-07T02:57:12.027Z,45.40
2023-01-07T02:59:55.214Z,48.70
2023-01-07T03:02:44.754Z,50.73
2023-01-07T03:05:26.588Z,48.03
2023-01-07T03:08:12.869Z,47.40
2023-01-07T03:10:46.729Z,49.83
2023-01-07T03:13:19.080Z,51.57
2023-01-07T03:15:58.521Z,52.77
2023-01-07T03:18:30.081Z,53.60
2023-01-07T03:21:04.259Z,55.37
2023-01-07T03:23:36.958Z,55.13
2023-01-07T03:26:07.056Z,53.27
2023-01-07T03:28:40.567Z,53.43
2023-01-07T03:31:12.725Z,55.70
2023-01-07T03:33:46.863Z,52.47
2023-01-07T03:36:19.627Z,52.90
2023-01-07T03:38:50.698Z,55.77
2023-01-07T03:41:32.855Z,56.07
2023-01-07T03:44:00.907Z,55.07
2023-01-07T03:46:29.400Z,53.60
2023-01-07T03:48:57.430Z,57.87
2023-01-07T03:51:25.699Z,55.00
2023-01-07T03:53:56.214Z,54.67
2023-01-07T03:56:24.841Z,51.37
2023-01-07T03:58:52.863Z,55.63
2023-01-07T04:01:21.020Z,52.43
2023-01-07T04:03:49.542Z,51.33
2023-01-07T04:06:18.208Z,54.07
2023-01-07T04:08:46.457Z,56.03
2023-01-07T04:11:15.854Z,52.93
2023-01-07T04:13:43.867Z,53.80
2023-01-07T04:16:12.211Z,54.80
2023-01-07T04:18:40.223Z,56.23
2023-01-07T04:21:08.500Z,53.67
2023-01-07T04:23:36.494Z,56.10
2023-01-07T04:26:04.709Z,55.13
2023-01-07T04:28:34.498Z,55.77
2023-01-07T04:31:02.790Z,58.70
2023-01-07T04:33:31.927Z,55.37
2023-01-07T04:36:00.253Z,53.10
2023-01-07T04:38:28.922Z,51.37
2023-01-07T04:40:57.545Z,52.60
2023-01-07T04:43:25.821Z,54.33
2023-01-07T04:45:56.267Z,53.40
2023-01-07T04:48:24.463Z,55.37
2023-01-07T04:50:54.833Z,49.70
2023-01-07T04:53:23.486Z,51.23
2023-01-07T04:55:53.492Z,51.37
2023-01-07T04:58:21.837Z,54.13
2023-01-07T05:00:51.207Z,49.87
2023-01-07T05:03:21.027Z,49.20
2023-01-07T05:05:49.559Z,48.07
2023-01-07T05:08:18.765Z,45.27
2023-01-07T05:10:49.422Z,50.80
2023-01-07T05:13:18.897Z,49.00
2023-01-07T05:15:47.711Z,50.87
2023-01-07T05:18:16.751Z,45.83
2023-01-07T05:20:47.929Z,49.87
2023-01-07T05:23:16.148Z,44.97
2023-01-07T05:25:45.528Z,47.00
2023-01-07T05:28:13.582Z,44.20
2023-01-07T05:30:42.692Z,48.07
2023-01-07T05:33:11.643Z,45.90
2023-01-07T05:35:39.643Z,44.07
2023-01-07T05:38:09.657Z,41.63
2023-01-07T05:40:38.024Z,38.53
2023-01-07T05:43:06.049Z,40.07
2023-01-07T05:45:34.143Z,40.90
2023-01-07T05:48:02.151Z,40.90
2023-01-07T05:50:30.173Z,38.57
2023-01-07T05:53:01.246Z,42.43
2023-01-07T05:55:30.586Z,36.97
2023-01-07T05:57:58.597Z,39.27
2023-01-07T06:00:26.607Z,37.87
2023-01-07T06:02:54.628Z,37.30
2023-01-07T06:05:23.371Z,37.40
2023-01-07T06:07:51.414Z,37.50
2023-01-07T06:10:19.524Z,38.70
2023-01-07T06:12:48.934Z,37.13
2023-01-07T06:15:17.063Z,36.57
2023-01-07T06:17:45.069Z,37.50
2023-01-07T06:20:15.026Z,36.03
2023-01-07T06:22:43.847Z,36.50
2023-01-07T06:25:12.159Z,38.83
2023-01-07T06:27:40.713Z,35.90
2023-01-07T06:30:11.813Z,34.43
2023-01-07T06:32:40.648Z,37.03
2023-01-07T06:35:10.473Z,37.57
2023-01-07T06:37:38.682Z,38.80
2023-01-07T06:40:08.661Z,38.07
2023-01-07T06:42:36.721Z,38.40
2023-01-07T06:45:05.032Z,36.93
2023-01-07T06:47:34.394Z,41.87
2023-01-07T06:50:02.416Z,38.53
2023-01-07T06:52:30.447Z,38.93
2023-01-07T06:54:58.440Z,36.37
2023-01-07T06:57:26.468Z,39.97
2023-01-07T06:59:54.506Z,38.50
2023-01-07T07:02:24.401Z,40.17
2023-01-07T07:04:54.346Z,42.60
2023-01-07T07:07:22.914Z,41.20
2023-01-07T07:09:51.493Z,42.27
2023-01-07T07:12:20.344Z,44.63
2023-01-07T07:14:48.342Z,41.53
2023-01-07T07:17:16.532Z,41.47
2023-01-07T07:19:44.542Z,44.53
2023-01-07T07:22:13.884Z,40.70
2023-01-07T07:24:41.893Z,44.03
2023-01-07T07:27:09.873Z,41.73
2023-01-07T07:29:37.883Z,43.83
2023-01-07T07:32:06.600Z,43.67
2023-01-07T07:34:36.026Z,44.47
2023-01-07T07:37:04.506Z,42.40
2023-01-07T07:39:34.395Z,45.67
2023-01-07T07:42:04.049Z,46.63
2023-01-07T07:44:32.073Z,43.73
2023-01-07T07:47:00.110Z,42.07
2023-01-07T07:49:28.146Z,41.80
2023-01-07T07:51:56.351Z,44.43
2023-01-07T07:54:24.506Z,43.53
2023-01-07T07:56:53.888Z,42.50
2023-01-07T07:59:21.908Z,43.70
2023-01-07T08:01:50.354Z,44.10
2023-01-07T08:04:18.588Z,41.83
2023-01-07T08:06:46.697Z,40.73
2023-01-07T08:09:14.713Z,41.27
2023-01-07T08:11:42.782Z,43.47
2023-01-07T08:14:12.480Z,41.47
2023-01-07T08:16:40.491Z,42.93
2023-01-07T08:19:08.499Z,39.03
2023-01-07T08:21:36.492Z,42.90
2023-01-07T08:24:04.916Z,42.33
2023-01-07T08:26:35.057Z,40.97
2023-01-07T08:29:03.096Z,41.50
2023-01-07T08:31:32.508Z,42.93
2023-01-07T08:34:00.563Z,41.93
2023-01-07T08:36:28.719Z,40.60
2023-01-07T08:38:56.956Z,40.37
2023-01-07T08:41:26.051Z,38.60
2023-01-07T08:43:54.803Z,38.83
2023-01-07T08:46:23.355Z,38.03
2023-01-07T08:48:52.726Z,39.03
2023-01-07T08:51:20.822Z,37.53
2023-01-07T08:53:48.864Z,36.63
2023-01-07T08:56:16.869Z,38.03
2023-01-07T08:58:44.913Z,33.37
2023-01-07T09:01:13.108Z,34.53
2023-01-07T09:03:41.195Z,32.67
2023-01-07T09:06:10.850Z,30.80
2023-01-07T09:08:40.384Z,31.50
2023-01-07T09:11:08.415Z,29.77
2023-01-07T09:13:36.456Z,27.43
2023-01-07T09:16:04.630Z,27.17
2023-01-07T09:18:32.678Z,30.37
2023-01-07T09:21:01.258Z,28.70
2023-01-07T09:23:30.840Z,24.57
2023-01-07T09:25:58.855Z,24.93
2023-01-07T09:28:26.861Z,22.73
2023-01-07T09:30:56.730Z,25.20
2023-01-07T09:33:24.987Z,20.83
2023-01-07T09:35:53.127Z,22.43
2023-01-07T09:38:21.158Z,20.03
2023-01-07T09:40:52.662Z,19.30
2023-01-07T09:43:58.888Z,18.60
2023-01-07T09:46:19.093Z,19.87
2023-01-07T09:48:54.460Z,19.13
2023-01-07T09:51:28.128Z,18.77
2023-01-07T09:54:00.471Z,16.83
2023-01-07T09:56:31.820Z,16.80
2023-01-07T09:59:01.424Z,15.83
2023-01-07T10:01:37.165Z,16.50
2023-01-07T10:04:20.050Z,15.30
2023-01-07T10:06:57.949Z,13.80
2023-01-07T10:09:36.630Z,13.17
2023-01-07T10:12:16.374Z,11.93
2023-01-07T10:14:58.579Z,12.63
2023-01-07T10:17:41.791Z,11.60
2023-01-07T10:20:18.656Z,10.30
2023-01-07T10:22:51.278Z,9.67
2023-01-07T10:25:23.015Z,9.30
2023-01-07T10:27:54.503Z,7.80
2023-01-07T10:30:26.095Z,8.70
2023-01-07T10:33:02.345Z,7.53
2023-01-07T10:35:34.147Z,7.17
2023-01-07T10:38:05.601Z,8.17
2023-01-07T10:40:41.935Z,6.47
2023-01-07T10:43:24.731Z,6.23
2023-01-07T10:46:16.267Z,6.17
2023-01-07T10:49:17.356Z,5.83
2023-01-07T10:51:57.621Z,5.27
2023-01-07T10:54:46.069Z,5.90
2023-01-07T10:57:18.717Z,4.97
2023-01-07T10:59:50.915Z,5.53
2023-01-07T11:02:21.966Z,6.23
2023-01-07T11:04:50.289Z,6.23
2023-01-07T11:07:29.431Z,6.90
2023-01-07T11:09:59.682Z,7.67
2023-01-07T11:12:35.733Z,8.70
2023-01-07T11:15:09.833Z,7.17
2023-01-07T11:17:42.765Z,6.70
2023-01-07T11:20:12.395Z,5.07
2023-01-07T11:22:40.887Z,4.00
2023-01-07T11:25:27.954Z,4.03
2023-01-07T11:27:58.848Z,4.63
2023-01-07T11:30:30.464Z,3.73
2023-01-07T11:33:04.389Z,3.27
2023-01-07T11:35:35.327Z,3.40
2023-01-07T11:38:03.407Z,3.10
2023-01-07T11:40:33.297Z,3.50
2023-01-07T11:43:03.757Z,4.00
2023-01-07T11:45:36.283Z,4.10
2023-01-07T11:48:10.810Z,3.87
2023-01-07T11:50:41.160Z,2.80
2023-01-07T11:53:24.572Z,3.33
2023-01-07T11:56:04.066Z,2.70
2023-01-07T11:58:33.800Z,3.07
2023-01-07T12:01:19.357Z,3.27
2023-01-07T12:04:13.222Z,3.37
2023-01-07T12:06:45.622Z,4.73
2023-01-07T12:09:23.843Z,3.10
2023-01-07T12:11:52.975Z,2.87
2023-01-07T12:14:26.936Z,3.63
2023-01-07T12:16:57.782Z,3.40
2023-01-07T12:19:42.238Z,2.93
2023-01-07T12:22:26.601Z,3.57
2023-01-07T12:25:27.638Z,2.30
2023-01-07T12:28:04.712Z,2.07
2023-01-07T12:30:54.536Z,2.80
2023-01-07T12:33:40.426Z,2.77
2023-01-07T12:36:16.032Z,2.83
2023-01-07T12:38:48.512Z,3.60
2023-01-07T12:41:20.830Z,3.03
2023-01-07T12:43:59.922Z,4.40
2023-01-07T12:46:33.746Z,2.57
2023-01-07T12:49:08.896Z,4.00
2023-01-07T12:51:43.976Z,3.30
2023-01-07T12:54:18.646Z,3.77
2023-01-07T12:56:52.438Z,2.80
2023-01-07T12:59:46.569Z,3.20
2023-01-07T13:02:22.344Z,2.33
2023-01-07T13:05:00.906Z,1.70
2023-01-07T13:07:39.243Z,2.40
2023-01-07T13:10:14.103Z,2.53
2023-01-07T13:12:44.095Z,2.23
2023-01-07T13:15:21.842Z,3.27
2023-01-07T13:17:51.202Z,2.87
2023-01-07T13:20:35.984Z,4.90
2023-01-07T13:23:06.202Z,3.13
2023-01-07T13:25:45.346Z,2.50
2023-01-07T13:28:44.794Z,2.57
2023-01-07T13:31:30.165Z,2.50
2023-01-07T13:34:05.698Z,2.27
2023-01-07T13:36:45.042Z,3.50
2023-01-07T13:39:41.035Z,2.20
2023-01-07T13:42:27.184Z,2.30
2023-01-07T13:45:02.917Z,1.93
2023-01-07T13:47:42.672Z,2.20
2023-01-07T13:50:21.180Z,2.87
2023-01-07T13:53:00.137Z,4.83
2023-01-07T13:55:39.566Z,3.63
2023-01-07T13:58:37.063Z,2.57
2023-01-07T14:01:08.644Z,2.60
2023-01-07T14:03:46.688Z,3.33
2023-01-07T14:06:45.854Z,3.03
2023-01-07T14:09:37.891Z,3.27
2023-01-07T14:12:51.589Z,3.10
2023-01-07T14:16:04.564Z,2.93
2023-01-07T14:19:04.255Z,3.13
2023-01-07T14:22:07.016Z,3.70
2023-01-07T14:24:50.893Z,3.33
2023-01-07T14:27:45.896Z,3.67
2023-01-07T14:30:21.447Z,3.20
2023-01-07T14:32:57.575Z,3.23
2023-01-07T14:35:30.840Z,3.70
2023-01-07T14:37:58.887Z,3.87
2023-01-07T14:40:53.680Z,4.50
2023-01-07T14:44:10.300Z,3.57
2023-01-07T14:46:47.905Z,4.30
2023-01-07T14:49:52.573Z,4.07
2023-01-07T14:52:43.793Z,4.47
2023-01-07T14:55:35.199Z,3.60
2023-01-07T14:58:29.291Z,3.10
2023-01-07T15:01:30.148Z,5.37
2023-01-07T15:04:24.392Z,7.30
2023-01-07T15:06:56.323Z,3.80
2023-01-07T15:09:44.980Z,2.90
2023-01-07T15:12:36.536Z,3.70
2023-01-07T15:15:29.201Z,4.97
2023-01-07T15:17:57.651Z,9.73
2023-01-07T15:20:39.945Z,7.70
2023-01-07T15:23:12.947Z,6.97
2023-01-07T15:25:50.654Z,5.27
2023-01-07T15:28:25.508Z,3.27
2023-01-07T15:31:01.530Z,3.33
2023-01-07T15:33:50.869Z,3.03
2023-01-07T15:36:20.434Z,3.03
2023-01-07T15:38:52.754Z,2.40
2023-01-07T15:41:28.068Z,3.37
2023-01-07T15:43:56.990Z,2.87
2023-01-07T15:46:26.929Z,4.10
2023-01-07T15:49:16.164Z,2.33
2023-01-07T15:51:47.935Z,9.07
2023-01-07T15:54:28.423Z,8.07
2023-01-07T15:57:00.960Z,13.33
2023-01-07T15:59:32.332Z,18.03
2023-01-07T16:02:07.214Z,14.67
2023-01-07T16:04:38.514Z,15.00
2023-01-07T16:07:15.271Z,16.40
2023-01-07T16:09:45.931Z,16.47
2023-01-07T16:12:30.509Z,16.80
2023-01-07T16:14:58.615Z,18.07
2023-01-07T16:17:27.319Z,13.87
2023-01-07T16:20:11.092Z,7.97
2023-01-07T16:22:42.649Z,6.30
2023-01-07T16:25:18.438Z,4.03
2023-01-07T16:27:46.875Z,4.13
2023-01-07T16:30:16.182Z,3.53
2023-01-07T16:32:45.299Z,2.97
2023-01-07T16:35:19.611Z,3.40
2023-01-07T16:37:50.076Z,2.83
2023-01-07T16:40:23.100Z,3.07
2023-01-07T16:42:51.371Z,3.17
2023-01-07T16:45:32.312Z,2.87
2023-01-07T16:48:20.363Z,2.77
2023-01-07T16:50:49.765Z,2.67
2023-01-07T16:53:28.398Z,2.47
2023-01-07T16:56:12.490Z,2.83
2023-01-07T16:58:43.573Z,3.00
2023-01-07T17:01:12.536Z,2.83
2023-01-07T17:03:53.652Z,2.40
2023-01-07T17:06:27.472Z,4.37
2023-01-07T17:08:58.173Z,3.43
2023-01-07T17:11:32.549Z,3.40
2023-01-07T17:14:00.771Z,3.93
2023-01-07T17:16:31.580Z,4.00
2023-01-07T17:19:21.322Z,2.67
2023-01-07T17:21:49.667Z,3.77
2023-01-07T17:24:47.161Z,5.13
2023-01-07T17:27:25.350Z,2.63
2023-01-07T17:29:53.499Z,2.30
2023-01-07T17:32:22.620Z,2.73
2023-01-07T17:34:50.778Z,2.20
2023-01-07T17:37:19.129Z,1.80
2023-01-07T17:39:51.107Z,1.93
2023-01-07T17:42:42.364Z,2.63
2023-01-07T17:45:16.267Z,2.50
2023-01-07T17:47:44.339Z,1.80
2023-01-07T17:50:14.295Z,2.63
2023-01-07T17:52:44.497Z,2.53
2023-01-07T17:55:16.765Z,2.33
2023-01-07T17:57:45.076Z,2.03
2023-01-07T18:00:18.461Z,1.80
2023-01-07T18:02:47.141Z,1.87
2023-01-07T18:05:18.093Z,3.87
2023-01-07T18:07:46.133Z,6.87
2023-01-07T18:10:17.191Z,9.73
2023-01-07T18:12:44.740Z,3.30
2023-01-07T18:15:21.716Z,3.10
2023-01-07T18:17:49.792Z,2.70
2023-01-07T18:20:22.846Z,2.83
2023-01-07T18:22:51.148Z,1.90
2023-01-07T18:25:22.670Z,1.97
2023-01-07T18:27:53.220Z,2.00
2023-01-07T18:30:22.973Z,2.87
2023-01-07T18:32:52.973Z,1.67
2023-01-07T18:35:22.656Z,3.40
2023-01-07T18:37:51.358Z,2.10
2023-01-07T18:40:21.122Z,3.03
2023-01-07T18:42:49.180Z,4.10
2023-01-07T18:45:17.341Z,2.97
2023-01-07T18:47:45.936Z,4.13
2023-01-07T18:50:14.296Z,3.03
2023-01-07T18:52:43.509Z,3.20
2023-01-07T18:55:12.437Z,3.40
2023-01-07T18:57:41.783Z,11.47
2023-01-07T19:00:10.989Z,5.63
2023-01-07T19:02:39.020Z,4.13
2023-01-07T19:05:08.030Z,4.87
2023-01-07T19:07:36.141Z,6.33
2023-01-07T19:10:04.490Z,6.17
2023-01-07T19:12:32.519Z,7.17
2023-01-07T19:15:01.874Z,4.70
2023-01-07T19:17:29.881Z,7.43
2023-01-07T19:19:57.889Z,3.70
2023-01-07T19:22:25.936Z,4.27
2023-01-07T19:24:54.530Z,3.43
2023-01-07T19:27:22.537Z,3.13
2023-01-07T19:29:50.688Z,3.37
2023-01-07T19:32:20.076Z,3.50
2023-01-07T19:34:49.613Z,5.00
2023-01-07T19:37:17.647Z,2.90
2023-01-07T19:39:45.618Z,3.17
2023-01-07T19:42:13.707Z,3.30
2023-01-07T19:44:42.028Z,3.23
2023-01-07T19:47:10.392Z,3.03
2023-01-07T19:49:39.735Z,4.47
2023-01-07T19:52:07.750Z,4.43
2023-01-07T19:54:35.819Z,3.33
2023-01-07T19:57:03.867Z,4.33
2023-01-07T19:59:33.817Z,3.37
2023-01-07T20:02:02.468Z,3.40
2023-01-07T20:04:30.661Z,3.90
2023-01-07T20:07:00.032Z,3.73
2023-01-07T20:09:28.008Z,2.70
2023-01-07T20:11:56.002Z,4.97
2023-01-07T20:14:24.009Z,2.83
2023-01-07T20:16:52.079Z,3.00
2023-01-07T20:19:20.147Z,2.40
2023-01-07T20:21:48.129Z,4.90
2023-01-07T20:24:17.691Z,3.20
2023-01-07T20:26:45.849Z,7.40
2023-01-07T20:29:13.841Z,2.50
2023-01-07T20:31:42.031Z,5.30
2023-01-07T20:34:10.824Z,5.30
2023-01-07T20:36:38.899Z,5.57
2023-01-07T20:39:06.923Z,3.43
2023-01-07T20:41:38.566Z,4.47
2023-01-07T20:44:08.522Z,5.00
2023-01-07T20:46:39.052Z,14.33
2023-01-07T20:49:07.402Z,5.33
2023-01-07T20:51:35.519Z,6.23
2023-01-07T20:54:03.537Z,4.40
2023-01-07T20:56:32.837Z,3.97
2023-01-07T20:59:03.917Z,3.23
2023-01-07T21:01:32.145Z,3.27
2023-01-07T21:04:01.805Z,3.13
2023-01-07T21:06:29.905Z,4.90
2023-01-07T21:08:57.968Z,3.30
2023-01-07T21:11:26.219Z,4.00
2023-01-07T21:13:56.117Z,3.00
2023-01-07T21:16:25.817Z,3.00
2023-01-07T21:18:53.955Z,4.60
2023-01-07T21:21:25.185Z,3.20
2023-01-07T21:23:53.598Z,3.00
2023-01-07T21:26:23.687Z,3.10
2023-01-07T21:28:55.670Z,3.10
2023-01-07T21:31:26.048Z,3.30
2023-01-07T21:33:56.514Z,3.10
2023-01-07T21:36:25.531Z,3.70
2023-01-07T21:38:55.485Z,3.97
2023-01-07T21:41:24.469Z,3.40
2023-01-07T21:43:52.915Z,4.10
2023-01-07T21:46:22.590Z,3.53
2023-01-07T21:48:52.237Z,4.10
2023-01-07T21:51:23.183Z,3.47
2023-01-07T21:53:55.485Z,3.83
2023-01-07T21:56:24.995Z,3.60
2023-01-07T21:58:53.041Z,4.07
2023-01-07T22:01:21.552Z,6.77
2023-01-07T22:03:51.975Z,4.37
2023-01-07T22:06:21.300Z,4.23
2023-01-07T22:08:49.944Z,4.10
2023-01-07T22:11:19.008Z,4.20
2023-01-07T22:13:50.985Z,4.43
2023-01-07T22:16:19.608Z,3.93
2023-01-07T22:18:47.875Z,4.43
2023-01-07T22:21:18.120Z,5.10
2023-01-07T22:23:47.750Z,3.67
2023-01-07T22:26:17.439Z,4.53
2023-01-07T22:28:48.359Z,3.67
2023-01-07T22:31:19.919Z,4.70
2023-01-07T22:33:47.928Z,4.10
2023-01-07T22:36:21.295Z,3.77
2023-01-07T22:38:50.357Z,3.73
2023-01-07T22:41:19.101Z,4.93
2023-01-07T22:43:47.242Z,4.03
2023-01-07T22:46:20.780Z,3.77
2023-01-07T22:48:50.051Z,3.90
2023-01-07T22:51:24.945Z,6.23
2023-01-07T22:53:55.769Z,3.80
2023-01-07T22:56:24.105Z,4.10
2023-01-07T22:58:52.191Z,4.67
2023-01-07T23:01:20.497Z,4.10
2023-01-07T23:03:49.140Z,3.80
2023-01-07T23:06:19.199Z,4.70
2023-01-07T23:08:47.223Z,5.07
2023-01-07T23:11:35.998Z,4.33
2023-01-07T23:14:04.256Z,4.93
2023-01-07T23:16:32.316Z,4.33
2023-01-07T23:19:00.383Z,3.67
2023-01-07T23:21:31.408Z,4.30
2023-01-07T23:23:59.886Z,5.00
2023-01-07T23:26:27.926Z,4.87
2023-01-07T23:28:56.040Z,8.20
2023-01-07T23:31:24.080Z,4.17
2023-01-07T23:33:52.128Z,5.10
2023-01-07T23:36:20.112Z,6.97
2023-01-07T23:38:49.665Z,6.63
2023-01-07T23:41:17.827Z,4.20
2023-01-07T23:43:45.893Z,4.70
2023-01-07T23:46:14.014Z,4.57
2023-01-07T23:48:42.108Z,3.47
2023-01-07T23:51:11.826Z,4.10
2023-01-07T23:53:40.306Z,6.20
2023-01-07T23:56:10.734Z,5.33
2023-01-07T23:58:39.637Z,4.50
